FIN22WA LPPR-EFHK
Flight info
| Callsign | FIN22WA |
|---|---|
| Flight time | N/A |
| Altitude | 40000 |
| Route | BELDU DCT RONSI N873 DELOG DCT YURZI UL14 TEPRA UN867 MOKOR UN873 BAZOS DCT CMB DCT ADUTO N873 SPY/N0486F410 N873 JUIST DCT DOSUR P729 TALSA Z702 AMTOT DCT BEDOS DCT ROGMI DCT EVADI Y370 DIVAM |
| Aircraft | A359/H-SDE2E3GHIJ3J4J5LM1ORWXY/LB1D1 |
Departure
| Time | N/A |
|---|---|
| Airport | Francisco de Sá Carneiro Airport (LPPR) |
Arrival
| Time | 2026-05-03 23:41 |
|---|---|
| Airport | Helsinki Vantaa Airport (EFHK) |
| Time | Latitude | Longitude | Altitude | Speed | Heading |
|---|---|---|---|---|---|
| 2026-05-03 20:15 | 41.81392 | -6.02513 | 39970 ft | 453 kts | 26° |
| 2026-05-03 20:15 | 41.86953 | -5.98208 | 39965 ft | 465 kts | 27° |
| 2026-05-03 20:16 | 41.92598 | -5.93833 | 39961 ft | 476 kts | 27° |
| 2026-05-03 20:16 | 41.98385 | -5.89341 | 39964 ft | 488 kts | 27° |
| 2026-05-03 20:17 | 42.04374 | -5.84682 | 39966 ft | 500 kts | 27° |
| 2026-05-03 20:17 | 42.10468 | -5.79931 | 39965 ft | 512 kts | 27° |
| 2026-05-03 20:18 | 42.16699 | -5.75062 | 39964 ft | 523 kts | 27° |
| 2026-05-03 20:18 | 42.23012 | -5.70114 | 39961 ft | 527 kts | 27° |
| 2026-05-03 20:19 | 42.29338 | -5.65143 | 39961 ft | 526 kts | 27° |
| 2026-05-03 20:19 | 42.35626 | -5.60194 | 39963 ft | 525 kts | 27° |
| 2026-05-03 20:20 | 42.41942 | -5.55212 | 39962 ft | 525 kts | 28° |
| 2026-05-03 20:20 | 42.48266 | -5.50212 | 39965 ft | 525 kts | 28° |
| 2026-05-03 20:21 | 42.54585 | -5.45204 | 39965 ft | 525 kts | 28° |
| 2026-05-03 20:21 | 42.60867 | -5.40214 | 39965 ft | 525 kts | 28° |
| 2026-05-03 20:22 | 42.67173 | -5.35193 | 39965 ft | 525 kts | 28° |
| 2026-05-03 20:22 | 42.73478 | -5.30161 | 39966 ft | 525 kts | 28° |
| 2026-05-03 20:23 | 42.79763 | -5.25132 | 39973 ft | 525 kts | 28° |
| 2026-05-03 20:23 | 42.86074 | -5.20071 | 39974 ft | 525 kts | 28° |
| 2026-05-03 20:24 | 42.92381 | -5.15001 | 39980 ft | 525 kts | 28° |
| 2026-05-03 20:24 | 42.98643 | -5.09956 | 39985 ft | 525 kts | 28° |
| 2026-05-03 20:25 | 43.04962 | -5.04849 | 39995 ft | 525 kts | 28° |
| 2026-05-03 20:25 | 43.10188 | -5.00618 | 39997 ft | 525 kts | 28° |
| 2026-05-03 20:26 | 43.17522 | -4.94669 | 40002 ft | 525 kts | 28° |
| 2026-05-03 20:26 | 43.23779 | -4.89576 | 40004 ft | 525 kts | 29° |
| 2026-05-03 20:27 | 43.29032 | -4.85292 | 40020 ft | 525 kts | 29° |
| 2026-05-03 20:27 | 43.35277 | -4.80191 | 40017 ft | 525 kts | 29° |
| 2026-05-03 20:28 | 43.41550 | -4.75052 | 40015 ft | 525 kts | 29° |
| 2026-05-03 20:28 | 43.47839 | -4.69886 | 40014 ft | 525 kts | 29° |
| 2026-05-03 20:29 | 43.54105 | -4.64728 | 40008 ft | 525 kts | 29° |
| 2026-05-03 20:29 | 43.60339 | -4.59583 | 40011 ft | 524 kts | 29° |
| 2026-05-03 20:30 | 43.66602 | -4.54401 | 40004 ft | 524 kts | 29° |
| 2026-05-03 20:30 | 43.72863 | -4.49209 | 40002 ft | 524 kts | 30° |
| 2026-05-03 20:31 | 43.79121 | -4.44006 | 40001 ft | 524 kts | 30° |
| 2026-05-03 20:31 | 43.85345 | -4.38819 | 39996 ft | 524 kts | 30° |
| 2026-05-03 20:32 | 43.91595 | -4.33597 | 39996 ft | 525 kts | 30° |
| 2026-05-03 20:32 | 43.97866 | -4.28344 | 39990 ft | 525 kts | 30° |
| 2026-05-03 20:33 | 44.04094 | -4.23115 | 39991 ft | 525 kts | 30° |
| 2026-05-03 20:33 | 44.10380 | -4.17824 | 39992 ft | 525 kts | 30° |
| 2026-05-03 20:34 | 44.16615 | -4.12562 | 39993 ft | 525 kts | 30° |
| 2026-05-03 20:34 | 44.22852 | -4.07285 | 39986 ft | 525 kts | 30° |
| 2026-05-03 20:35 | 44.29082 | -4.02002 | 39988 ft | 525 kts | 30° |
| 2026-05-03 20:35 | 44.35321 | -3.96724 | 39985 ft | 525 kts | 29° |
| 2026-05-03 20:36 | 44.41692 | -3.91672 | 39986 ft | 525 kts | 28° |
| 2026-05-03 20:36 | 44.48077 | -3.86703 | 39986 ft | 525 kts | 28° |
| 2026-05-03 20:37 | 44.54418 | -3.81709 | 39988 ft | 525 kts | 28° |
| 2026-05-03 20:37 | 44.60802 | -3.76630 | 39982 ft | 525 kts | 28° |
| 2026-05-03 20:38 | 44.67125 | -3.71576 | 39986 ft | 525 kts | 28° |
| 2026-05-03 20:38 | 44.73486 | -3.66480 | 39990 ft | 525 kts | 28° |
| 2026-05-03 20:39 | 44.79841 | -3.61378 | 39973 ft | 525 kts | 28° |
| 2026-05-03 20:39 | 44.86141 | -3.56307 | 39973 ft | 526 kts | 28° |
| 2026-05-03 20:40 | 44.92495 | -3.51180 | 39975 ft | 526 kts | 28° |
| 2026-05-03 20:40 | 44.98876 | -3.46019 | 39979 ft | 526 kts | 28° |
| 2026-05-03 20:41 | 45.05183 | -3.40904 | 39979 ft | 526 kts | 28° |
| 2026-05-03 20:41 | 45.11531 | -3.35742 | 39975 ft | 525 kts | 28° |
| 2026-05-03 20:42 | 45.17858 | -3.30584 | 39973 ft | 525 kts | 29° |
| 2026-05-03 20:42 | 45.24197 | -3.25403 | 39975 ft | 525 kts | 29° |
| 2026-05-03 20:43 | 45.30507 | -3.20232 | 39974 ft | 525 kts | 29° |
| 2026-05-03 20:43 | 45.36827 | -3.15039 | 39975 ft | 525 kts | 29° |
| 2026-05-03 20:44 | 45.43154 | -3.09827 | 39976 ft | 525 kts | 29° |
| 2026-05-03 20:44 | 45.49483 | -3.04600 | 39977 ft | 525 kts | 29° |
| 2026-05-03 20:45 | 45.55812 | -2.99359 | 39970 ft | 525 kts | 29° |
| 2026-05-03 20:45 | 45.62126 | -2.94116 | 39972 ft | 525 kts | 29° |
| 2026-05-03 20:46 | 45.68442 | -2.88859 | 39974 ft | 525 kts | 29° |
| 2026-05-03 20:46 | 45.74746 | -2.83597 | 39976 ft | 525 kts | 29° |
| 2026-05-03 20:47 | 45.81059 | -2.78314 | 39971 ft | 525 kts | 29° |
| 2026-05-03 20:47 | 45.87310 | -2.73068 | 39971 ft | 524 kts | 29° |
| 2026-05-03 20:48 | 45.93644 | -2.67740 | 39968 ft | 524 kts | 29° |
| 2026-05-03 20:48 | 45.99924 | -2.62443 | 39973 ft | 524 kts | 29° |
| 2026-05-03 20:49 | 46.06190 | -2.57143 | 39970 ft | 524 kts | 30° |
| 2026-05-03 20:49 | 46.12491 | -2.51800 | 39971 ft | 524 kts | 30° |
| 2026-05-03 20:50 | 46.19142 | -2.47729 | 39974 ft | 520 kts | 12° |
| 2026-05-03 20:50 | 46.26259 | -2.46092 | 39973 ft | 518 kts | 5° |
| 2026-05-03 20:51 | 46.33423 | -2.44951 | 39968 ft | 518 kts | 4° |
| 2026-05-03 20:51 | 46.40600 | -2.43866 | 39970 ft | 518 kts | 4° |
| 2026-05-03 20:52 | 46.47736 | -2.42429 | 39966 ft | 521 kts | 12° |
| 2026-05-03 20:52 | 46.54432 | -2.38475 | 39963 ft | 523 kts | 27° |
| 2026-05-03 20:53 | 46.60830 | -2.33323 | 39964 ft | 524 kts | 29° |
| 2026-05-03 20:53 | 46.67136 | -2.28018 | 39962 ft | 524 kts | 29° |
| 2026-05-03 20:54 | 46.73441 | -2.22721 | 39959 ft | 525 kts | 29° |
| 2026-05-03 20:54 | 46.82965 | -2.14766 | 39954 ft | 524 kts | 29° |
| 2026-05-03 20:55 | 46.89263 | -2.09501 | 39954 ft | 524 kts | 29° |
| 2026-05-03 20:55 | 46.95704 | -2.04549 | 39953 ft | 524 kts | 24° |
| 2026-05-03 20:56 | 47.02148 | -1.99462 | 39955 ft | 524 kts | 33° |
| 2026-05-03 20:56 | 47.08100 | -1.93291 | 39957 ft | 525 kts | 36° |
| 2026-05-03 20:57 | 47.13933 | -1.86859 | 39958 ft | 525 kts | 37° |
| 2026-05-03 20:57 | 47.19722 | -1.80407 | 39964 ft | 525 kts | 37° |
| 2026-05-03 20:58 | 47.25554 | -1.73948 | 39963 ft | 525 kts | 37° |
| 2026-05-03 20:58 | 47.31419 | -1.67455 | 39961 ft | 524 kts | 36° |
| 2026-05-03 20:59 | 47.36646 | -1.60049 | 39960 ft | 523 kts | 50° |
| 2026-05-03 20:59 | 47.41213 | -1.51713 | 39952 ft | 524 kts | 52° |
| 2026-05-03 21:00 | 47.44189 | -1.46055 | 39952 ft | 524 kts | 53° |
| 2026-05-03 21:00 | 47.50126 | -1.34700 | 39943 ft | 524 kts | 53° |
| 2026-05-03 21:01 | 47.54612 | -1.26143 | 39947 ft | 524 kts | 53° |
| 2026-05-03 21:01 | 47.59076 | -1.17624 | 39947 ft | 524 kts | 53° |
| 2026-05-03 21:02 | 47.63525 | -1.09110 | 39941 ft | 524 kts | 53° |
| 2026-05-03 21:02 | 47.67972 | -1.00572 | 39946 ft | 523 kts | 53° |
| 2026-05-03 21:03 | 47.72417 | -0.92010 | 39943 ft | 523 kts | 53° |
| 2026-05-03 21:03 | 47.76845 | -0.83458 | 39943 ft | 523 kts | 53° |
| 2026-05-03 21:04 | 47.81287 | -0.74841 | 39942 ft | 523 kts | 53° |
| 2026-05-03 21:04 | 47.85690 | -0.66272 | 39940 ft | 522 kts | 53° |
| 2026-05-03 21:05 | 47.90099 | -0.57665 | 39940 ft | 522 kts | 53° |
| 2026-05-03 21:05 | 47.94494 | -0.49061 | 39939 ft | 522 kts | 53° |
| 2026-05-03 21:06 | 47.98896 | -0.40417 | 39944 ft | 522 kts | 53° |
| 2026-05-03 21:06 | 48.03285 | -0.31770 | 39944 ft | 522 kts | 53° |
| 2026-05-03 21:07 | 48.07670 | -0.23109 | 39948 ft | 522 kts | 53° |
| 2026-05-03 21:07 | 48.12106 | -0.14532 | 39949 ft | 522 kts | 52° |
| 2026-05-03 21:08 | 48.16565 | -0.05977 | 39949 ft | 522 kts | 52° |
| 2026-05-03 21:08 | 48.21009 | 0.02598 | 39950 ft | 522 kts | 53° |
| 2026-05-03 21:09 | 48.25464 | 0.11248 | 39948 ft | 522 kts | 53° |
| 2026-05-03 21:09 | 48.29869 | 0.19838 | 39942 ft | 522 kts | 53° |
| 2026-05-03 21:10 | 48.34285 | 0.28475 | 39945 ft | 522 kts | 53° |
| 2026-05-03 21:10 | 48.38697 | 0.37129 | 39943 ft | 522 kts | 53° |
| 2026-05-03 21:11 | 48.43131 | 0.45795 | 39943 ft | 521 kts | 52° |
| 2026-05-03 21:11 | 48.47585 | 0.54454 | 39944 ft | 521 kts | 52° |
| 2026-05-03 21:12 | 48.52194 | 0.62891 | 39944 ft | 521 kts | 44° |
| 2026-05-03 21:12 | 48.56785 | 0.68731 | 39940 ft | 520 kts | 37° |
| 2026-05-03 21:13 | 48.63494 | 0.76437 | 39940 ft | 520 kts | 36° |
| 2026-05-03 21:13 | 48.68332 | 0.81907 | 39944 ft | 520 kts | 36° |
| 2026-05-03 21:14 | 48.74129 | 0.88505 | 39946 ft | 519 kts | 36° |
| 2026-05-03 21:14 | 48.79894 | 0.95111 | 39944 ft | 519 kts | 37° |
| 2026-05-03 21:15 | 48.85623 | 1.01716 | 39941 ft | 519 kts | 37° |
| 2026-05-03 21:15 | 48.91361 | 1.08354 | 39940 ft | 519 kts | 37° |
| 2026-05-03 21:16 | 48.97098 | 1.15005 | 39939 ft | 518 kts | 37° |
| 2026-05-03 21:16 | 49.02797 | 1.21733 | 39938 ft | 518 kts | 41° |
| 2026-05-03 21:17 | 49.08127 | 1.29158 | 39947 ft | 518 kts | 43° |
| 2026-05-03 21:17 | 49.13348 | 1.36680 | 39946 ft | 517 kts | 44° |
| 2026-05-03 21:18 | 49.18573 | 1.44271 | 39947 ft | 517 kts | 44° |
| 2026-05-03 21:18 | 49.23781 | 1.51847 | 39951 ft | 517 kts | 44° |
| 2026-05-03 21:19 | 49.28967 | 1.59391 | 39950 ft | 517 kts | 44° |
| 2026-05-03 21:19 | 49.34166 | 1.66978 | 39941 ft | 517 kts | 44° |
| 2026-05-03 21:20 | 49.39363 | 1.74591 | 39938 ft | 516 kts | 44° |
| 2026-05-03 21:20 | 49.44565 | 1.82231 | 39937 ft | 516 kts | 44° |
| 2026-05-03 21:21 | 49.49745 | 1.89861 | 39939 ft | 516 kts | 44° |
| 2026-05-03 21:21 | 49.54821 | 1.97581 | 39942 ft | 515 kts | 47° |
| 2026-05-03 21:22 | 49.59617 | 2.05796 | 39937 ft | 515 kts | 49° |
| 2026-05-03 21:22 | 49.64363 | 2.14062 | 39938 ft | 515 kts | 49° |
| 2026-05-03 21:23 | 49.69144 | 2.22266 | 39940 ft | 515 kts | 48° |
| 2026-05-03 21:23 | 49.73969 | 2.30485 | 39951 ft | 515 kts | 48° |
| 2026-05-03 21:24 | 49.78767 | 2.38666 | 39937 ft | 515 kts | 48° |
| 2026-05-03 21:24 | 49.83575 | 2.46897 | 39934 ft | 515 kts | 48° |
| 2026-05-03 21:25 | 49.88368 | 2.55133 | 39935 ft | 515 kts | 49° |
| 2026-05-03 21:25 | 49.93165 | 2.63403 | 39934 ft | 515 kts | 49° |
| 2026-05-03 21:26 | 49.97948 | 2.71676 | 39929 ft | 515 kts | 49° |
| 2026-05-03 21:26 | 50.02753 | 2.80014 | 39941 ft | 515 kts | 49° |
| 2026-05-03 21:27 | 50.07520 | 2.88312 | 39944 ft | 515 kts | 49° |
| 2026-05-03 21:27 | 50.12284 | 2.96631 | 39941 ft | 515 kts | 49° |
| 2026-05-03 21:28 | 50.17042 | 3.04968 | 39943 ft | 515 kts | 49° |
| 2026-05-03 21:28 | 50.21980 | 3.13045 | 39941 ft | 515 kts | 40° |
| 2026-05-03 21:29 | 50.28003 | 3.18935 | 39924 ft | 513 kts | 26° |
| 2026-05-03 21:29 | 50.34451 | 3.23769 | 39940 ft | 513 kts | 24° |
| 2026-05-03 21:30 | 50.40938 | 3.28443 | 39944 ft | 513 kts | 24° |
| 2026-05-03 21:30 | 50.47396 | 3.33134 | 39932 ft | 513 kts | 24° |
| 2026-05-03 21:31 | 50.53871 | 3.37871 | 39936 ft | 513 kts | 24° |
| 2026-05-03 21:31 | 50.60406 | 3.42384 | 39931 ft | 513 kts | 22° |
| 2026-05-03 21:32 | 50.66959 | 3.46832 | 39933 ft | 513 kts | 22° |
| 2026-05-03 21:32 | 50.73507 | 3.51325 | 39941 ft | 512 kts | 23° |
| 2026-05-03 21:33 | 50.80045 | 3.55857 | 39936 ft | 512 kts | 23° |
| 2026-05-03 21:33 | 50.86549 | 3.60388 | 39939 ft | 512 kts | 23° |
| 2026-05-03 21:34 | 50.93069 | 3.64943 | 39934 ft | 512 kts | 23° |
| 2026-05-03 21:34 | 50.99571 | 3.69590 | 39932 ft | 512 kts | 24° |
| 2026-05-03 21:35 | 51.06059 | 3.74291 | 39932 ft | 513 kts | 24° |
| 2026-05-03 21:35 | 51.12538 | 3.78987 | 39928 ft | 513 kts | 24° |
| 2026-05-03 21:36 | 51.19026 | 3.83690 | 39927 ft | 513 kts | 24° |
| 2026-05-03 21:36 | 51.25504 | 3.88392 | 39929 ft | 513 kts | 24° |
| 2026-05-03 21:37 | 51.32027 | 3.93156 | 39931 ft | 514 kts | 24° |
| 2026-05-03 21:37 | 51.38537 | 3.97941 | 39932 ft | 514 kts | 24° |
| 2026-05-03 21:38 | 51.44998 | 4.02701 | 39935 ft | 514 kts | 24° |
| 2026-05-03 21:38 | 51.51539 | 4.07526 | 39934 ft | 515 kts | 24° |
| 2026-05-03 21:39 | 51.58026 | 4.12330 | 39932 ft | 515 kts | 24° |
| 2026-05-03 21:39 | 51.64518 | 4.17158 | 39931 ft | 515 kts | 24° |
| 2026-05-03 21:40 | 51.71052 | 4.22031 | 39931 ft | 515 kts | 24° |
| 2026-05-03 21:40 | 51.77548 | 4.26884 | 39934 ft | 515 kts | 24° |
| 2026-05-03 21:41 | 51.84072 | 4.31785 | 39936 ft | 516 kts | 24° |
| 2026-05-03 21:41 | 51.90574 | 4.36693 | 39940 ft | 516 kts | 24° |
| 2026-05-03 21:42 | 51.97074 | 4.41611 | 39942 ft | 516 kts | 24° |
| 2026-05-03 21:42 | 52.03553 | 4.46526 | 39937 ft | 516 kts | 24° |
| 2026-05-03 21:43 | 52.10034 | 4.51458 | 39937 ft | 516 kts | 24° |
| 2026-05-03 21:43 | 52.16538 | 4.56424 | 39935 ft | 516 kts | 24° |
| 2026-05-03 21:44 | 52.23028 | 4.61395 | 39938 ft | 515 kts | 24° |
| 2026-05-03 21:44 | 52.29507 | 4.66371 | 39938 ft | 515 kts | 24° |
| 2026-05-03 21:45 | 52.36000 | 4.71377 | 39937 ft | 515 kts | 24° |
| 2026-05-03 21:45 | 52.42510 | 4.76413 | 39939 ft | 515 kts | 24° |
| 2026-05-03 21:46 | 52.48979 | 4.81439 | 39932 ft | 515 kts | 24° |
| 2026-05-03 21:46 | 52.54908 | 4.87983 | 39931 ft | 516 kts | 43° |
| 2026-05-03 21:47 | 52.59647 | 4.96834 | 39931 ft | 516 kts | 51° |
| 2026-05-03 21:47 | 52.64078 | 5.06100 | 39928 ft | 516 kts | 52° |
| 2026-05-03 21:48 | 52.68490 | 5.15481 | 39925 ft | 516 kts | 52° |
| 2026-05-03 21:48 | 52.72885 | 5.24783 | 39926 ft | 517 kts | 52° |
| 2026-05-03 21:49 | 52.77327 | 5.34152 | 39924 ft | 517 kts | 52° |
| 2026-05-03 21:49 | 52.81748 | 5.43496 | 39923 ft | 517 kts | 52° |
| 2026-05-03 21:50 | 52.86164 | 5.52905 | 39922 ft | 517 kts | 52° |
| 2026-05-03 21:50 | 52.90558 | 5.62304 | 39921 ft | 517 kts | 53° |
| 2026-05-03 21:51 | 52.94957 | 5.71741 | 39925 ft | 517 kts | 53° |
| 2026-05-03 21:51 | 52.99343 | 5.81182 | 39926 ft | 518 kts | 53° |
| 2026-05-03 21:52 | 53.03721 | 5.90639 | 39928 ft | 518 kts | 53° |
| 2026-05-03 21:52 | 53.08110 | 6.00157 | 39931 ft | 518 kts | 53° |
| 2026-05-03 21:53 | 53.12466 | 6.09631 | 39926 ft | 518 kts | 53° |
| 2026-05-03 21:53 | 53.16835 | 6.19176 | 39911 ft | 518 kts | 53° |
| 2026-05-03 21:54 | 53.21216 | 6.28797 | 39913 ft | 519 kts | 53° |
| 2026-05-03 21:54 | 53.25568 | 6.38385 | 39913 ft | 518 kts | 53° |
| 2026-05-03 21:55 | 53.29919 | 6.48004 | 39913 ft | 518 kts | 53° |
| 2026-05-03 21:55 | 53.34320 | 6.57559 | 39910 ft | 518 kts | 48° |
| 2026-05-03 21:56 | 53.39426 | 6.66007 | 39912 ft | 518 kts | 43° |
| 2026-05-03 21:56 | 53.44721 | 6.74191 | 39911 ft | 518 kts | 42° |
| 2026-05-03 21:57 | 53.50030 | 6.82333 | 39914 ft | 518 kts | 42° |
| 2026-05-03 21:57 | 53.55336 | 6.90516 | 39910 ft | 518 kts | 42° |
| 2026-05-03 21:58 | 53.60579 | 6.98897 | 39909 ft | 518 kts | 44° |
| 2026-05-03 21:58 | 53.65632 | 7.07521 | 39907 ft | 518 kts | 45° |
| 2026-05-03 21:59 | 53.70681 | 7.16175 | 39908 ft | 518 kts | 45° |
| 2026-05-03 21:59 | 53.75746 | 7.24797 | 39905 ft | 518 kts | 45° |
| 2026-05-03 22:00 | 53.80818 | 7.33417 | 39907 ft | 518 kts | 44° |
| 2026-05-03 22:00 | 53.85893 | 7.42069 | 39906 ft | 518 kts | 44° |
| 2026-05-03 22:01 | 53.90134 | 7.49326 | 39901 ft | 519 kts | 45° |
| 2026-05-03 22:01 | 53.95202 | 7.58029 | 39899 ft | 519 kts | 45° |
| 2026-05-03 22:02 | 54.00288 | 7.66797 | 39896 ft | 519 kts | 45° |
| 2026-05-03 22:02 | 54.05342 | 7.75541 | 39892 ft | 519 kts | 45° |
| 2026-05-03 22:03 | 54.10376 | 7.84283 | 39887 ft | 518 kts | 45° |
| 2026-05-03 22:03 | 54.15404 | 7.93046 | 39887 ft | 518 kts | 45° |
| 2026-05-03 22:04 | 54.20462 | 8.01895 | 39883 ft | 518 kts | 45° |
| 2026-05-03 22:04 | 54.25484 | 8.10714 | 39879 ft | 518 kts | 45° |
| 2026-05-03 22:05 | 54.30506 | 8.19566 | 39873 ft | 518 kts | 45° |
| 2026-05-03 22:05 | 54.35510 | 8.28418 | 39870 ft | 518 kts | 45° |
| 2026-05-03 22:06 | 54.40514 | 8.37304 | 39867 ft | 518 kts | 45° |
| 2026-05-03 22:06 | 54.45494 | 8.46180 | 39865 ft | 518 kts | 45° |
| 2026-05-03 22:07 | 54.50504 | 8.55144 | 39864 ft | 518 kts | 45° |
| 2026-05-03 22:07 | 54.55474 | 8.64070 | 39862 ft | 517 kts | 45° |
| 2026-05-03 22:08 | 54.60443 | 8.73026 | 39856 ft | 517 kts | 45° |
| 2026-05-03 22:08 | 54.65396 | 8.81988 | 39852 ft | 517 kts | 45° |
| 2026-05-03 22:09 | 54.70374 | 8.91030 | 39848 ft | 517 kts | 45° |
| 2026-05-03 22:10 | 54.77803 | 9.04588 | 39844 ft | 517 kts | 46° |
| 2026-05-03 22:10 | 54.82727 | 9.13616 | 39848 ft | 517 kts | 46° |
| 2026-05-03 22:11 | 54.87659 | 9.22720 | 39845 ft | 517 kts | 47° |
| 2026-05-03 22:11 | 54.92407 | 9.32030 | 39848 ft | 517 kts | 48° |
| 2026-05-03 22:12 | 54.97130 | 9.41514 | 39852 ft | 517 kts | 48° |
| 2026-05-03 22:12 | 55.01836 | 9.50926 | 39853 ft | 516 kts | 48° |
| 2026-05-03 22:13 | 55.06572 | 9.60370 | 39852 ft | 516 kts | 48° |
| 2026-05-03 22:13 | 55.11164 | 9.69988 | 39857 ft | 517 kts | 54° |
| 2026-05-03 22:14 | 55.15307 | 9.80265 | 39851 ft | 517 kts | 55° |
| 2026-05-03 22:14 | 55.19338 | 9.90581 | 39848 ft | 517 kts | 56° |
| 2026-05-03 22:15 | 55.23388 | 10.01029 | 39849 ft | 517 kts | 56° |
| 2026-05-03 22:15 | 55.27424 | 10.11459 | 39851 ft | 517 kts | 56° |
| 2026-05-03 22:16 | 55.31456 | 10.21905 | 39851 ft | 518 kts | 56° |
| 2026-05-03 22:16 | 55.35507 | 10.32440 | 39855 ft | 518 kts | 56° |
| 2026-05-03 22:17 | 55.39512 | 10.42902 | 39856 ft | 518 kts | 56° |
| 2026-05-03 22:17 | 55.43521 | 10.53419 | 39854 ft | 518 kts | 56° |
| 2026-05-03 22:18 | 55.47532 | 10.63987 | 39850 ft | 519 kts | 56° |
| 2026-05-03 22:18 | 55.51532 | 10.74571 | 39850 ft | 519 kts | 56° |
| 2026-05-03 22:19 | 55.55525 | 10.85183 | 39842 ft | 519 kts | 56° |
| 2026-05-03 22:19 | 55.59509 | 10.95818 | 39840 ft | 519 kts | 56° |
| 2026-05-03 22:20 | 55.63507 | 11.06536 | 39836 ft | 519 kts | 56° |
| 2026-05-03 22:20 | 55.67466 | 11.17196 | 39841 ft | 519 kts | 56° |
| 2026-05-03 22:21 | 55.71423 | 11.27895 | 39841 ft | 520 kts | 56° |
| 2026-05-03 22:21 | 55.75378 | 11.38639 | 39844 ft | 520 kts | 56° |
| 2026-05-03 22:22 | 55.79325 | 11.49407 | 39845 ft | 520 kts | 56° |
| 2026-05-03 22:22 | 55.83251 | 11.60163 | 39845 ft | 519 kts | 56° |
| 2026-05-03 22:23 | 55.87173 | 11.70959 | 39846 ft | 519 kts | 56° |
| 2026-05-03 22:23 | 55.91079 | 11.81758 | 39844 ft | 519 kts | 56° |
| 2026-05-03 22:24 | 55.94978 | 11.92585 | 39848 ft | 518 kts | 56° |
| 2026-05-03 22:24 | 55.98860 | 12.03413 | 39848 ft | 518 kts | 56° |
| 2026-05-03 22:25 | 56.02737 | 12.14268 | 39844 ft | 518 kts | 57° |
| 2026-05-03 22:25 | 56.07120 | 12.24453 | 39852 ft | 516 kts | 49° |
| 2026-05-03 22:26 | 56.11741 | 12.34310 | 39848 ft | 515 kts | 48° |
| 2026-05-03 22:26 | 56.16371 | 12.44090 | 39852 ft | 515 kts | 48° |
| 2026-05-03 22:27 | 56.20993 | 12.53905 | 39852 ft | 515 kts | 48° |
| 2026-05-03 22:27 | 56.25601 | 12.63761 | 39832 ft | 515 kts | 48° |
| 2026-05-03 22:28 | 56.30201 | 12.73648 | 39828 ft | 515 kts | 48° |
| 2026-05-03 22:28 | 56.34784 | 12.83541 | 39828 ft | 515 kts | 48° |
| 2026-05-03 22:29 | 56.38840 | 12.92329 | 39829 ft | 515 kts | 49° |
| 2026-05-03 22:29 | 56.43429 | 13.02311 | 39839 ft | 515 kts | 49° |
| 2026-05-03 22:30 | 56.48001 | 13.12297 | 39842 ft | 515 kts | 49° |
| 2026-05-03 22:30 | 56.51588 | 13.20161 | 39845 ft | 515 kts | 49° |
| 2026-05-03 22:31 | 56.56141 | 13.30180 | 39846 ft | 515 kts | 49° |
| 2026-05-03 22:31 | 56.60690 | 13.40232 | 39852 ft | 515 kts | 49° |
| 2026-05-03 22:32 | 56.65204 | 13.50249 | 39853 ft | 515 kts | 49° |
| 2026-05-03 22:32 | 56.69736 | 13.60348 | 39855 ft | 515 kts | 49° |
| 2026-05-03 22:33 | 56.74284 | 13.70526 | 39853 ft | 515 kts | 49° |
| 2026-05-03 22:33 | 56.78790 | 13.80652 | 39853 ft | 516 kts | 49° |
| 2026-05-03 22:34 | 56.83297 | 13.90823 | 39851 ft | 515 kts | 49° |
| 2026-05-03 22:34 | 56.87798 | 14.01024 | 39850 ft | 515 kts | 49° |
| 2026-05-03 22:35 | 56.92287 | 14.11240 | 39845 ft | 516 kts | 49° |
| 2026-05-03 22:35 | 56.96766 | 14.21479 | 39844 ft | 516 kts | 49° |
| 2026-05-03 22:36 | 57.01230 | 14.31726 | 39838 ft | 516 kts | 50° |
| 2026-05-03 22:36 | 57.05702 | 14.42035 | 39839 ft | 516 kts | 50° |
| 2026-05-03 22:37 | 57.10163 | 14.52364 | 39835 ft | 516 kts | 50° |
| 2026-05-03 22:37 | 57.14617 | 14.62722 | 39838 ft | 516 kts | 50° |
| 2026-05-03 22:38 | 57.19060 | 14.73097 | 39840 ft | 516 kts | 50° |
| 2026-05-03 22:38 | 57.23498 | 14.83508 | 39842 ft | 516 kts | 50° |
| 2026-05-03 22:39 | 57.27937 | 14.93966 | 39843 ft | 516 kts | 50° |
| 2026-05-03 22:39 | 57.32345 | 15.04394 | 39841 ft | 516 kts | 50° |
| 2026-05-03 22:40 | 57.36563 | 15.15170 | 39847 ft | 518 kts | 57° |
| 2026-05-03 22:40 | 57.40224 | 15.26691 | 39843 ft | 518 kts | 59° |
| 2026-05-03 22:41 | 57.43783 | 15.38333 | 39838 ft | 519 kts | 59° |
| 2026-05-03 22:41 | 57.47317 | 15.50000 | 39838 ft | 519 kts | 59° |
| 2026-05-03 22:42 | 57.50841 | 15.61651 | 39841 ft | 519 kts | 59° |
| 2026-05-03 22:42 | 57.54381 | 15.73383 | 39841 ft | 519 kts | 59° |
| 2026-05-03 22:43 | 57.57893 | 15.85077 | 39842 ft | 519 kts | 59° |
| 2026-05-03 22:43 | 57.61392 | 15.96789 | 39845 ft | 519 kts | 59° |
| 2026-05-03 22:44 | 57.64909 | 16.08620 | 39845 ft | 519 kts | 60° |
| 2026-05-03 22:44 | 57.68389 | 16.20389 | 39844 ft | 519 kts | 60° |
| 2026-05-03 22:45 | 57.71868 | 16.32212 | 39851 ft | 519 kts | 60° |
| 2026-05-03 22:45 | 57.74940 | 16.42706 | 39854 ft | 519 kts | 60° |
| 2026-05-03 22:46 | 57.78402 | 16.54584 | 39846 ft | 519 kts | 60° |
| 2026-05-03 22:46 | 57.81841 | 16.66446 | 39848 ft | 518 kts | 60° |
| 2026-05-03 22:47 | 57.85280 | 16.78371 | 39850 ft | 518 kts | 60° |
| 2026-05-03 22:47 | 57.88688 | 16.90249 | 39853 ft | 518 kts | 60° |
| 2026-05-03 22:48 | 57.92097 | 17.02191 | 39853 ft | 518 kts | 60° |
| 2026-05-03 22:48 | 57.95497 | 17.14163 | 39853 ft | 518 kts | 60° |
| 2026-05-03 22:49 | 57.98873 | 17.26110 | 39852 ft | 518 kts | 60° |
| 2026-05-03 22:49 | 58.02232 | 17.38064 | 39856 ft | 518 kts | 61° |
| 2026-05-03 22:50 | 58.05606 | 17.50133 | 39851 ft | 517 kts | 61° |
| 2026-05-03 22:50 | 58.08946 | 17.62141 | 39850 ft | 517 kts | 61° |
| 2026-05-03 22:51 | 58.11716 | 17.72151 | 39848 ft | 517 kts | 61° |
| 2026-05-03 22:51 | 58.15055 | 17.84272 | 39847 ft | 517 kts | 61° |
| 2026-05-03 22:52 | 58.18361 | 17.96341 | 39850 ft | 517 kts | 61° |
| 2026-05-03 22:52 | 58.21768 | 18.08275 | 39843 ft | 516 kts | 57° |
| 2026-05-03 22:53 | 58.25556 | 18.19844 | 39849 ft | 515 kts | 56° |
| 2026-05-03 22:53 | 58.29355 | 18.31354 | 39850 ft | 515 kts | 57° |
| 2026-05-03 22:54 | 58.33107 | 18.43024 | 39849 ft | 515 kts | 57° |
| 2026-05-03 22:54 | 58.36802 | 18.54714 | 39851 ft | 516 kts | 57° |
| 2026-05-03 22:55 | 58.40471 | 18.66407 | 39855 ft | 516 kts | 57° |
| 2026-05-03 22:55 | 58.44136 | 18.78139 | 39859 ft | 515 kts | 58° |
| 2026-05-03 22:56 | 58.46941 | 18.87150 | 39858 ft | 515 kts | 58° |
| 2026-05-03 22:56 | 58.50665 | 18.99167 | 39858 ft | 515 kts | 58° |
| 2026-05-03 22:57 | 58.54306 | 19.10973 | 39853 ft | 515 kts | 58° |
| 2026-05-03 22:57 | 58.57927 | 19.22775 | 39860 ft | 515 kts | 58° |
| 2026-05-03 22:58 | 58.61541 | 19.34616 | 39864 ft | 515 kts | 58° |
| 2026-05-03 22:58 | 58.65134 | 19.46447 | 39866 ft | 515 kts | 58° |
| 2026-05-03 22:59 | 58.68742 | 19.58387 | 39860 ft | 514 kts | 58° |
| 2026-05-03 22:59 | 58.72311 | 19.70261 | 39866 ft | 514 kts | 58° |
| 2026-05-03 23:00 | 58.75874 | 19.82171 | 39863 ft | 514 kts | 58° |
| 2026-05-03 23:00 | 58.79437 | 19.94146 | 39865 ft | 514 kts | 59° |
| 2026-05-03 23:01 | 58.82973 | 20.06091 | 39533 ft | 514 kts | 59° |
| 2026-05-03 23:01 | 58.84751 | 20.12122 | 39078 ft | 514 kts | 59° |
| 2026-05-03 23:01 | 58.86523 | 20.18149 | 38622 ft | 515 kts | 59° |
| 2026-05-03 23:01 | 58.88277 | 20.24127 | 38097 ft | 515 kts | 59° |
| 2026-05-03 23:02 | 58.90052 | 20.30192 | 37537 ft | 516 kts | 59° |
| 2026-05-03 23:02 | 58.91806 | 20.36201 | 37001 ft | 518 kts | 59° |
| 2026-05-03 23:02 | 58.93583 | 20.42307 | 36472 ft | 519 kts | 59° |
| 2026-05-03 23:02 | 58.95364 | 20.48440 | 35957 ft | 520 kts | 59° |
| 2026-05-03 23:03 | 58.97121 | 20.54507 | 35457 ft | 522 kts | 59° |
| 2026-05-03 23:03 | 58.98906 | 20.60690 | 34959 ft | 523 kts | 59° |
| 2026-05-03 23:03 | 59.00669 | 20.66812 | 34484 ft | 524 kts | 59° |
| 2026-05-03 23:03 | 59.02435 | 20.72962 | 34049 ft | 526 kts | 59° |
| 2026-05-03 23:04 | 59.04230 | 20.79229 | 33662 ft | 527 kts | 59° |
| 2026-05-03 23:04 | 59.06003 | 20.85436 | 33241 ft | 528 kts | 59° |
| 2026-05-03 23:04 | 59.07796 | 20.91732 | 32847 ft | 529 kts | 59° |
| 2026-05-03 23:04 | 59.09561 | 20.97944 | 32456 ft | 530 kts | 59° |
| 2026-05-03 23:05 | 59.11348 | 21.04253 | 32061 ft | 531 kts | 60° |
| 2026-05-03 23:05 | 59.13138 | 21.10588 | 31672 ft | 532 kts | 60° |
| 2026-05-03 23:05 | 59.14912 | 21.16884 | 31293 ft | 532 kts | 60° |
| 2026-05-03 23:05 | 59.16681 | 21.23182 | 30923 ft | 533 kts | 60° |
| 2026-05-03 23:06 | 59.18466 | 21.29551 | 30553 ft | 532 kts | 60° |
| 2026-05-03 23:06 | 59.20222 | 21.35836 | 30188 ft | 530 kts | 60° |
| 2026-05-03 23:06 | 59.21981 | 21.42151 | 29726 ft | 527 kts | 60° |
| 2026-05-03 23:06 | 59.23716 | 21.48397 | 29160 ft | 524 kts | 60° |
| 2026-05-03 23:07 | 59.25451 | 21.54661 | 28603 ft | 520 kts | 60° |
| 2026-05-03 23:07 | 59.27167 | 21.60873 | 28058 ft | 516 kts | 60° |
| 2026-05-03 23:07 | 59.28853 | 21.66995 | 27449 ft | 513 kts | 60° |
| 2026-05-03 23:07 | 59.30539 | 21.73130 | 26799 ft | 509 kts | 60° |
| 2026-05-03 23:08 | 59.32205 | 21.79209 | 26157 ft | 505 kts | 60° |
| 2026-05-03 23:08 | 59.33861 | 21.85266 | 25530 ft | 501 kts | 60° |
| 2026-05-03 23:08 | 59.35517 | 21.91200 | 24814 ft | 497 kts | 58° |
| 2026-05-03 23:08 | 59.37270 | 21.97081 | 24106 ft | 494 kts | 57° |
| 2026-05-03 23:09 | 59.39020 | 22.02760 | 23412 ft | 491 kts | 56° |
| 2026-05-03 23:09 | 59.40788 | 22.08464 | 22597 ft | 487 kts | 56° |
| 2026-05-03 23:09 | 59.42551 | 22.14183 | 21782 ft | 484 kts | 56° |
| 2026-05-03 23:09 | 59.44258 | 22.19783 | 21075 ft | 479 kts | 57° |
| 2026-05-03 23:10 | 59.45953 | 22.25397 | 20435 ft | 473 kts | 57° |
| 2026-05-03 23:10 | 59.47622 | 22.30970 | 19808 ft | 468 kts | 57° |
| 2026-05-03 23:10 | 59.49242 | 22.36405 | 19207 ft | 464 kts | 57° |
| 2026-05-03 23:10 | 59.50869 | 22.41881 | 18603 ft | 458 kts | 57° |
| 2026-05-03 23:11 | 59.52474 | 22.47292 | 18076 ft | 452 kts | 57° |
| 2026-05-03 23:11 | 59.54045 | 22.52606 | 17533 ft | 444 kts | 57° |
| 2026-05-03 23:11 | 59.55573 | 22.57802 | 17007 ft | 436 kts | 57° |
| 2026-05-03 23:11 | 59.57075 | 22.62919 | 16483 ft | 429 kts | 57° |
| 2026-05-03 23:12 | 59.58567 | 22.68016 | 15909 ft | 424 kts | 57° |
| 2026-05-03 23:12 | 59.60034 | 22.73026 | 15166 ft | 424 kts | 58° |
| 2026-05-03 23:12 | 59.61500 | 22.78038 | 14449 ft | 423 kts | 58° |
| 2026-05-03 23:12 | 59.62970 | 22.83077 | 13728 ft | 422 kts | 58° |
| 2026-05-03 23:13 | 59.64435 | 22.88110 | 13053 ft | 418 kts | 58° |
| 2026-05-03 23:13 | 59.65852 | 22.92996 | 12510 ft | 409 kts | 58° |
| 2026-05-03 23:13 | 59.67254 | 22.97844 | 11998 ft | 401 kts | 58° |
| 2026-05-03 23:13 | 59.68633 | 23.02620 | 11497 ft | 393 kts | 58° |
| 2026-05-03 23:14 | 59.69976 | 23.07260 | 11096 ft | 383 kts | 58° |
| 2026-05-03 23:14 | 59.71278 | 23.11780 | 10730 ft | 373 kts | 58° |
| 2026-05-03 23:14 | 59.72544 | 23.16186 | 10363 ft | 364 kts | 58° |
| 2026-05-03 23:14 | 59.73773 | 23.20470 | 9998 ft | 356 kts | 58° |
| 2026-05-03 23:15 | 59.74992 | 23.24724 | 9630 ft | 348 kts | 58° |
| 2026-05-03 23:15 | 59.76164 | 23.28819 | 9240 ft | 341 kts | 58° |
| 2026-05-03 23:15 | 59.77325 | 23.32885 | 8922 ft | 331 kts | 58° |
| 2026-05-03 23:15 | 59.78436 | 23.36786 | 8661 ft | 322 kts | 58° |
| 2026-05-03 23:16 | 59.79513 | 23.40570 | 8403 ft | 313 kts | 58° |
| 2026-05-03 23:16 | 59.80576 | 23.44310 | 8122 ft | 306 kts | 58° |
| 2026-05-03 23:16 | 59.81615 | 23.47970 | 7828 ft | 301 kts | 58° |
| 2026-05-03 23:16 | 59.82635 | 23.51567 | 7652 ft | 294 kts | 59° |
| 2026-05-03 23:17 | 59.83615 | 23.55028 | 7409 ft | 287 kts | 59° |
| 2026-05-03 23:17 | 59.84586 | 23.58464 | 7153 ft | 281 kts | 59° |
| 2026-05-03 23:17 | 59.85542 | 23.61839 | 6889 ft | 275 kts | 59° |
| 2026-05-03 23:17 | 59.86464 | 23.65112 | 6634 ft | 270 kts | 59° |
| 2026-05-03 23:18 | 59.87374 | 23.68362 | 6402 ft | 266 kts | 59° |
| 2026-05-03 23:18 | 59.88261 | 23.71528 | 6157 ft | 261 kts | 59° |
| 2026-05-03 23:18 | 59.89144 | 23.74685 | 5834 ft | 259 kts | 59° |
| 2026-05-03 23:18 | 59.90016 | 23.77803 | 5461 ft | 260 kts | 59° |
| 2026-05-03 23:19 | 59.90903 | 23.80982 | 5083 ft | 261 kts | 60° |
| 2026-05-03 23:19 | 59.91690 | 23.84204 | 4869 ft | 255 kts | 65° |
| 2026-05-03 23:19 | 59.92364 | 23.87333 | 4836 ft | 240 kts | 66° |
| 2026-05-03 23:19 | 59.92987 | 23.90273 | 4990 ft | 218 kts | 66° |
| 2026-05-03 23:20 | 59.93545 | 23.92910 | 5016 ft | 199 kts | 66° |
| 2026-05-03 23:20 | 59.94071 | 23.95390 | 4934 ft | 190 kts | 66° |
| 2026-05-03 23:20 | 59.94588 | 23.97820 | 4682 ft | 189 kts | 66° |
| 2026-05-03 23:20 | 59.95115 | 24.00299 | 4452 ft | 202 kts | 66° |
| 2026-05-03 23:21 | 59.95672 | 24.02923 | 4196 ft | 205 kts | 66° |
| 2026-05-03 23:21 | 59.96248 | 24.05635 | 4039 ft | 219 kts | 66° |
| 2026-05-03 23:21 | 59.96850 | 24.08478 | 4017 ft | 223 kts | 66° |
| 2026-05-03 23:21 | 59.97447 | 24.11307 | 4014 ft | 223 kts | 66° |
| 2026-05-03 23:22 | 59.98650 | 24.17016 | 4014 ft | 223 kts | 66° |
| 2026-05-03 23:22 | 59.99254 | 24.19888 | 4014 ft | 223 kts | 66° |
| 2026-05-03 23:22 | 59.99851 | 24.22728 | 4015 ft | 223 kts | 66° |
| 2026-05-03 23:23 | 60.00447 | 24.25569 | 4012 ft | 223 kts | 66° |
| 2026-05-03 23:23 | 60.01050 | 24.28447 | 4013 ft | 223 kts | 66° |
| 2026-05-03 23:23 | 60.01643 | 24.31280 | 4014 ft | 223 kts | 66° |
| 2026-05-03 23:23 | 60.02240 | 24.34142 | 4014 ft | 223 kts | 66° |
| 2026-05-03 23:24 | 60.02839 | 24.37014 | 4014 ft | 223 kts | 66° |
| 2026-05-03 23:24 | 60.03432 | 24.39856 | 4014 ft | 223 kts | 66° |
| 2026-05-03 23:24 | 60.04027 | 24.42716 | 4013 ft | 223 kts | 66° |
| 2026-05-03 23:24 | 60.04626 | 24.45601 | 4011 ft | 223 kts | 66° |
| 2026-05-03 23:25 | 60.05216 | 24.48443 | 4012 ft | 223 kts | 66° |
| 2026-05-03 23:25 | 60.05812 | 24.51318 | 4007 ft | 223 kts | 66° |
| 2026-05-03 23:25 | 60.06403 | 24.54175 | 4005 ft | 223 kts | 66° |
| 2026-05-03 23:25 | 60.06998 | 24.57054 | 4002 ft | 223 kts | 66° |
| 2026-05-03 23:26 | 60.07586 | 24.59907 | 4000 ft | 223 kts | 66° |
| 2026-05-03 23:26 | 60.08178 | 24.62779 | 3999 ft | 223 kts | 66° |
| 2026-05-03 23:26 | 60.08772 | 24.65663 | 3997 ft | 223 kts | 66° |
| 2026-05-03 23:26 | 60.09366 | 24.68553 | 3992 ft | 223 kts | 66° |
| 2026-05-03 23:27 | 60.09976 | 24.71381 | 3990 ft | 223 kts | 63° |
| 2026-05-03 23:27 | 60.10836 | 24.73965 | 3991 ft | 222 kts | 48° |
| 2026-05-03 23:27 | 60.11855 | 24.76247 | 3991 ft | 221 kts | 45° |
| 2026-05-03 23:27 | 60.12914 | 24.78518 | 3990 ft | 221 kts | 45° |
| 2026-05-03 23:28 | 60.13958 | 24.80765 | 3979 ft | 214 kts | 45° |
| 2026-05-03 23:28 | 60.14980 | 24.82976 | 3992 ft | 227 kts | 45° |
| 2026-05-03 23:28 | 60.16084 | 24.85367 | 3974 ft | 240 kts | 45° |
| 2026-05-03 23:28 | 60.17229 | 24.87864 | 3967 ft | 243 kts | 46° |
| 2026-05-03 23:29 | 60.18362 | 24.90342 | 3973 ft | 243 kts | 46° |
| 2026-05-03 23:29 | 60.19508 | 24.92855 | 3980 ft | 242 kts | 46° |
| 2026-05-03 23:29 | 60.20638 | 24.95332 | 3976 ft | 242 kts | 46° |
| 2026-05-03 23:29 | 60.21783 | 24.97848 | 3973 ft | 242 kts | 46° |
| 2026-05-03 23:30 | 60.22925 | 25.00357 | 3971 ft | 242 kts | 46° |
| 2026-05-03 23:30 | 60.24056 | 25.02847 | 3971 ft | 242 kts | 46° |
| 2026-05-03 23:30 | 60.25198 | 25.05359 | 3973 ft | 242 kts | 46° |
| 2026-05-03 23:30 | 60.26432 | 25.07608 | 3968 ft | 241 kts | 32° |
| 2026-05-03 23:31 | 60.27947 | 25.08988 | 3959 ft | 238 kts | 14° |
| 2026-05-03 23:31 | 60.29533 | 25.09816 | 3729 ft | 236 kts | 11° |
| 2026-05-03 23:31 | 60.31130 | 25.10569 | 3477 ft | 235 kts | 11° |
| 2026-05-03 23:31 | 60.32726 | 25.11332 | 3222 ft | 234 kts | 11° |
| 2026-05-03 23:32 | 60.34305 | 25.12035 | 3002 ft | 228 kts | 7° |
| 2026-05-03 23:32 | 60.35824 | 25.12024 | 2972 ft | 211 kts | 347° |
| 2026-05-03 23:32 | 60.37134 | 25.11110 | 2979 ft | 192 kts | 332° |
| 2026-05-03 23:32 | 60.38310 | 25.09925 | 2975 ft | 186 kts | 330° |
| 2026-05-03 23:33 | 60.39468 | 25.08711 | 2974 ft | 186 kts | 330° |
| 2026-05-03 23:33 | 60.40606 | 25.07527 | 2975 ft | 186 kts | 330° |
| 2026-05-03 23:33 | 60.41765 | 25.06329 | 2978 ft | 186 kts | 330° |
| 2026-05-03 23:33 | 60.42908 | 25.05152 | 2955 ft | 186 kts | 330° |
| 2026-05-03 23:34 | 60.44066 | 25.03964 | 2731 ft | 186 kts | 331° |
| 2026-05-03 23:34 | 60.45211 | 25.02791 | 2518 ft | 184 kts | 331° |
| 2026-05-03 23:34 | 60.46351 | 25.01615 | 2475 ft | 181 kts | 331° |
| 2026-05-03 23:34 | 60.47369 | 25.00323 | 2462 ft | 163 kts | 319° |
| 2026-05-03 23:35 | 60.48049 | 24.98682 | 2412 ft | 148 kts | 298° |
| 2026-05-03 23:35 | 60.48381 | 24.96770 | 2271 ft | 140 kts | 279° |
| 2026-05-03 23:35 | 60.48373 | 24.94871 | 2181 ft | 133 kts | 260° |
| 2026-05-03 23:35 | 60.48073 | 24.93079 | 2186 ft | 134 kts | 245° |
| 2026-05-03 23:36 | 60.47653 | 24.91402 | 2160 ft | 135 kts | 243° |
| 2026-05-03 23:36 | 60.47221 | 24.89709 | 2096 ft | 135 kts | 243° |
| 2026-05-03 23:36 | 60.46790 | 24.88005 | 2007 ft | 135 kts | 244° |
| 2026-05-03 23:36 | 60.46319 | 24.86357 | 1978 ft | 136 kts | 235° |
| 2026-05-03 23:37 | 60.45598 | 24.85157 | 1976 ft | 138 kts | 208° |
| 2026-05-03 23:37 | 60.44636 | 24.84927 | 1989 ft | 141 kts | 179° |
| 2026-05-03 23:37 | 60.43684 | 24.85424 | 1983 ft | 142 kts | 156° |
| 2026-05-03 23:37 | 60.42823 | 24.86375 | 1981 ft | 142 kts | 150° |
| 2026-05-03 23:38 | 60.41960 | 24.87301 | 1971 ft | 142 kts | 154° |
| 2026-05-03 23:38 | 60.41074 | 24.88201 | 1939 ft | 141 kts | 155° |
| 2026-05-03 23:38 | 60.40217 | 24.89073 | 1802 ft | 137 kts | 154° |
| 2026-05-03 23:38 | 60.39653 | 24.89653 | 1670 ft | 136 kts | 154° |
| 2026-05-03 23:39 | 60.38810 | 24.90521 | 1479 ft | 135 kts | 154° |
| 2026-05-03 23:39 | 60.37983 | 24.91372 | 1296 ft | 134 kts | 154° |
| 2026-05-03 23:39 | 60.36876 | 24.92508 | 1045 ft | 134 kts | 154° |
| 2026-05-03 23:39 | 60.36323 | 24.93075 | 925 ft | 134 kts | 153° |
| 2026-05-03 23:40 | 60.35484 | 24.93937 | 734 ft | 134 kts | 153° |
| 2026-05-03 23:40 | 60.34651 | 24.94790 | 566 ft | 134 kts | 153° |
| 2026-05-03 23:40 | 60.33827 | 24.95630 | 389 ft | 133 kts | 154° |
| 2026-05-03 23:40 | 60.33004 | 24.96456 | 238 ft | 133 kts | 154° |
| 2026-05-03 23:41 | 60.32213 | 24.97269 | 169 ft | 117 kts | 153° |
| 2026-05-03 23:41 | 60.31690 | 24.97828 | 165 ft | 43 kts | 152° |
| 2026-05-03 23:41 | 60.31518 | 24.97994 | 165 ft | 21 kts | 174° |
| 2026-05-03 23:41 | 60.31427 | 24.97921 | 166 ft | 10 kts | 238° |
| 2026-05-03 23:42 | 60.31419 | 24.97787 | 166 ft | 8 kts | 298° |
| 2026-05-03 23:42 | 60.31463 | 24.97717 | 166 ft | 9 kts | 327° |
| 2026-05-03 23:42 | 60.31531 | 24.97640 | 166 ft | 13 kts | 332° |
| 2026-05-03 23:42 | 60.31621 | 24.97551 | 167 ft | 16 kts | 335° |
| 2026-05-03 23:43 | 60.31730 | 24.97441 | 167 ft | 19 kts | 333° |
| 2026-05-03 23:43 | 60.31857 | 24.97308 | 168 ft | 22 kts | 332° |
| 2026-05-03 23:43 | 60.32002 | 24.97160 | 168 ft | 24 kts | 333° |
| 2026-05-03 23:43 | 60.32157 | 24.96997 | 169 ft | 22 kts | 332° |
| 2026-05-03 23:44 | 60.32232 | 24.96879 | 170 ft | 7 kts | 285° |
| 2026-05-03 23:44 | 60.32230 | 24.96805 | 170 ft | 7 kts | 273° |
| 2026-05-03 23:44 | 60.32236 | 24.96694 | 170 ft | 5 kts | 256° |
| 2026-05-03 23:44 | 60.32214 | 24.96606 | 170 ft | 8 kts | 233° |
| 2026-05-03 23:45 | 60.32138 | 24.96439 | 170 ft | 19 kts | 227° |
| 2026-05-03 23:45 | 60.32041 | 24.96226 | 170 ft | 22 kts | 227° |
| 2026-05-03 23:45 | 60.31927 | 24.95975 | 170 ft | 26 kts | 227° |
| 2026-05-03 23:45 | 60.31827 | 24.95753 | 170 ft | 17 kts | 227° |
| 2026-05-03 23:46 | 60.31736 | 24.95553 | 170 ft | 21 kts | 227° |
| 2026-05-03 23:46 | 60.31629 | 24.95319 | 169 ft | 24 kts | 227° |
| 2026-05-03 23:46 | 60.31537 | 24.95110 | 169 ft | 21 kts | 230° |
| 2026-05-03 23:46 | 60.31444 | 24.94993 | 169 ft | 8 kts | 168° |
| 2026-05-03 23:47 | 60.31410 | 24.95055 | 169 ft | 9 kts | 135° |
| 2026-05-03 23:47 | 60.31353 | 24.95166 | 169 ft | 14 kts | 136° |
| 2026-05-03 23:47 | 60.31273 | 24.95318 | 169 ft | 18 kts | 136° |
| 2026-05-03 23:47 | 60.31182 | 24.95508 | 169 ft | 16 kts | 117° |
| 2026-05-03 23:48 | 60.31190 | 24.95644 | 169 ft | 10 kts | 69° |
| 2026-05-03 23:48 | 60.31232 | 24.95746 | 170 ft | 11 kts | 49° |
| 2026-05-03 23:48 | 60.31292 | 24.95887 | 170 ft | 15 kts | 49° |
| 2026-05-03 23:48 | 60.31358 | 24.96066 | 170 ft | 14 kts | 72° |
| 2026-05-03 23:49 | 60.31341 | 24.96156 | 170 ft | 6 kts | 137° |
| 2026-05-03 23:49 | 60.31297 | 24.96237 | 169 ft | 11 kts | 137° |
| 2026-05-03 23:49 | 60.31252 | 24.96346 | 169 ft | 5 kts | 94° |
| 2026-05-03 23:49 | 60.31267 | 24.96381 | 169 ft | 5 kts | 49° |
| 2026-05-03 23:50 | 60.31289 | 24.96432 | 169 ft | 0 kts | 49° |
| 2026-05-03 23:50 | 60.31292 | 24.96440 | 169 ft | 0 kts | 51° |